Arlington Heights, Massachusetts
Current Conditions -  °F | °C
As of 7:56 PM on Monday 24 Nov 2014 (Local Time) from KBED Reporting Station
Scattered Clouds Scattered Clouds  
Wind Chill: 17°   Ceiling: Unl
Heat Index: 17°   Visibility: 10mi
Dew Point: 13°   Wind: 15mph
Humidity: 80%   Direction: 210°SSW
Pressure: 29.63"   Gusts: 25mph
Location:  42.42°N, 71.17°W
Report Text: KBED 250056Z 21013G22KT 10SM SCT025 17/13 A2963 RMK AO2 SLP046 T01670133
Loading
Personal Weather Stations






























Interactive Weather Map New forecast layout! Learn more

10-Day Weather Forecast

Advertisements
Track Severe Weather on mobile